Time;durP1;ratioP1;P1;durP2;ratioP2;P2;SDS_P1;SDS_P2;PMS_P1;PMS_P2;Temp;Humidity;BMP_temperature;BMP_pressure;BME280_temperature;BME280_humidity;BME280_pressure;Samples;Min_cycle;Max_cycle;Signal;HPM_P1;HPM_P2
2023/01/30 00:01:25;;;;;;;25.52;24.13;;;-3.60;93.90;;;;;;4987909;28;20042;-65
2023/01/30 00:03:51;;;;;;;13.45;12.45;;;-3.50;94.00;;;;;;4986211;28;20104;-65
2023/01/30 00:06:17;;;;;;;7.18;6.47;;;-3.50;94.00;;;;;;5009651;28;20038;-65
2023/01/30 00:08:43;;;;;;;18.58;17.52;;;-3.50;94.00;;;;;;5002320;28;20459;-66
2023/01/30 00:11:11;;;;;;;7.53;6.93;;;-3.50;93.90;;;;;;5008031;28;20062;-66
2023/01/30 00:13:36;;;;;;;15.18;10.60;;;-3.60;93.70;;;;;;5006389;28;20068;-65
2023/01/30 00:16:03;;;;;;;7.05;6.43;;;-3.70;93.80;;;;;;5005936;28;20069;-65
2023/01/30 00:18:28;;;;;;;175.35;160.68;;;-3.60;94.00;;;;;;5002923;28;20030;-64
2023/01/30 00:20:55;;;;;;;6.95;6.35;;;-3.50;94.10;;;;;;5008199;28;20041;-64
2023/01/30 00:23:21;;;;;;;7.57;6.97;;;-3.50;93.80;;;;;;5010753;28;20061;-65
2023/01/30 00:25:47;;;;;;;10.57;9.88;;;-3.60;93.80;;;;;;5007235;28;20484;-65
2023/01/30 00:28:12;;;;;;;8.35;7.65;;;-3.60;94.00;;;;;;5004401;28;20471;-65
2023/01/30 00:30:38;;;;;;;10.13;9.32;;;-3.60;93.90;;;;;;4994884;28;20026;-65
2023/01/30 00:33:03;;;;;;;39.95;37.67;;;-3.70;94.00;;;;;;5006629;28;20026;-64
2023/01/30 00:35:29;;;;;;;7.80;7.20;;;-3.70;94.10;;;;;;5004966;28;20057;-65
2023/01/30 00:37:56;;;;;;;5.82;5.32;;;-3.70;94.00;;;;;;5006102;28;20034;-64
2023/01/30 00:40:23;;;;;;;140.68;75.20;;;-3.70;94.20;;;;;;4990529;28;20435;-65
2023/01/30 00:48:17;;;;;;;5.28;4.82;;;-3.60;94.20;;;;;;5005572;28;20108;-65
2023/01/30 00:50:43;;;;;;;28.52;26.67;;;-3.60;94.30;;;;;;5003735;28;20029;-64
2023/01/30 00:53:13;;;;;;;7.72;7.03;;;-3.60;94.30;;;;;;5005885;28;20052;-64
2023/01/30 00:55:39;;;;;;;5.45;5.00;;;-3.50;94.20;;;;;;5010689;28;20040;-65
2023/01/30 00:58:05;;;;;;;8.63;7.82;;;-3.50;94.20;;;;;;5003658;28;20030;-65
2023/01/30 01:00:31;;;;;;;94.15;76.07;;;-3.60;93.90;;;;;;5004889;28;20484;-66
2023/01/30 01:02:57;;;;;;;114.00;101.70;;;-3.60;94.00;;;;;;4989784;28;20481;-65
2023/01/30 01:05:22;;;;;;;66.68;62.60;;;-3.50;93.80;;;;;;5003556;28;20033;-65
2023/01/30 01:07:48;;;;;;;28.00;26.42;;;-3.50;93.80;;;;;;4994356;28;20498;-65
2023/01/30 01:10:15;;;;;;;17.58;16.60;;;-3.50;93.80;;;;;;5005123;28;20454;-65
2023/01/30 01:12:44;;;;;;;17.13;16.08;;;-3.50;93.90;;;;;;5023677;28;20038;-65
2023/01/30 01:15:12;;;;;;;7.57;6.97;;;-3.50;93.90;;;;;;5025657;28;20029;-65
2023/01/30 01:17:38;;;;;;;35.03;33.50;;;-3.50;93.80;;;;;;5026317;28;20819;-65
2023/01/30 01:20:05;;;;;;;20.00;18.75;;;-3.60;94.00;;;;;;5024119;28;20033;-66
2023/01/30 01:22:31;;;;;;;13.20;12.57;;;-3.50;94.00;;;;;;5004565;28;20041;-65
2023/01/30 01:24:57;;;;;;;10.82;10.02;;;-3.60;93.90;;;;;;5021264;28;20053;-66
2023/01/30 01:27:22;;;;;;;19.92;18.60;;;-3.70;93.80;;;;;;5024361;28;20064;-64
2023/01/30 01:29:48;;;;;;;40.28;37.42;;;-3.70;94.00;;;;;;5022602;28;20037;-65
2023/01/30 01:32:13;;;;;;;6.85;6.15;;;-3.60;94.10;;;;;;5021318;28;20171;-66
2023/01/30 01:34:39;;;;;;;8.48;7.72;;;-3.60;94.00;;;;;;5013280;28;20034;-65
2023/01/30 01:37:05;;;;;;;18.05;17.08;;;-3.60;94.20;;;;;;5022675;28;20037;-65
2023/01/30 01:42:15;;;;;;;91.40;83.13;;;-3.60;94.00;;;;;;5020575;28;20048;-64
2023/01/30 01:44:59;;;;;;;59.70;56.17;;;-3.50;94.00;;;;;;5004323;28;20038;-65
2023/01/30 01:47:25;;;;;;;13.80;12.93;;;-3.60;94.00;;;;;;5022923;28;20026;-65
2023/01/30 01:49:50;;;;;;;130.95;118.25;;;-3.60;94.00;;;;;;5021582;28;20045;-64
2023/01/30 01:52:16;;;;;;;18.67;17.73;;;-3.60;94.00;;;;;;5019361;28;20107;-65
2023/01/30 01:54:53;;;;;;;69.88;48.47;;;-3.60;93.90;;;;;;5011314;28;20183;-65
2023/01/30 01:57:33;;;;;;;358.25;319.77;;;-3.60;94.00;;;;;;5022564;28;20078;-65
2023/01/30 02:00:19;;;;;;;11.33;10.57;;;-3.60;94.10;;;;;;5025807;28;20140;-66
2023/01/30 02:02:58;;;;;;;8.88;8.18;;;-3.60;94.10;;;;;;5016871;28;20040;-65
2023/01/30 02:05:29;;;;;;;7.63;6.88;;;-3.60;94.10;;;;;;5023438;28;20076;-65
2023/01/30 02:08:01;;;;;;;52.15;49.35;;;-3.60;94.10;;;;;;5026258;28;20041;-65
2023/01/30 02:10:46;;;;;;;9.10;8.15;;;-3.70;94.60;;;;;;5004708;28;20038;-65
2023/01/30 02:13:12;;;;;;;8.55;7.32;;;-3.70;94.10;;;;;;4999794;28;20042;-65
2023/01/30 02:15:38;;;;;;;7.07;6.40;;;-3.80;94.20;;;;;;5004336;28;20022;-65
2023/01/30 02:18:04;;;;;;;177.38;133.90;;;-3.80;94.20;;;;;;4998937;28;20068;-64
2023/01/30 02:20:51;;;;;;;7.60;6.93;;;-3.80;94.40;;;;;;4987678;28;20066;-64
2023/01/30 02:23:54;;;;;;;6.93;6.32;;;-3.80;94.30;;;;;;5006920;28;20079;-65
2023/01/30 02:26:22;;;;;;;5.65;5.15;;;-3.90;94.30;;;;;;5013029;28;20076;-64
2023/01/30 02:29:10;;;;;;;5.68;5.25;;;-3.90;94.40;;;;;;5002724;28;20562;-66
2023/01/30 02:32:02;;;;;;;12.68;11.77;;;-3.80;94.20;;;;;;5002617;28;20561;-65
2023/01/30 02:34:47;;;;;;;6.65;6.10;;;-3.90;93.90;;;;;;4998807;28;20030;-65
2023/01/30 02:37:37;;;;;;;3.75;3.47;;;-3.90;94.20;;;;;;5005280;28;20052;-65
2023/01/30 02:40:27;;;;;;;8.80;6.80;;;-3.80;94.50;;;;;;5007083;28;20018;-65
2023/01/30 02:43:14;;;;;;;7.07;6.38;;;-3.90;94.40;;;;;;5005070;28;20029;-65
2023/01/30 02:46:01;;;;;;;7.35;6.55;;;-3.90;94.50;;;;;;5009613;28;20030;-65
2023/01/30 02:48:32;;;;;;;7.78;6.20;;;-3.80;94.60;;;;;;4998906;28;20038;-66
2023/01/30 02:51:29;;;;;;;5.53;5.13;;;-4.00;94.50;;;;;;5006235;28;20035;-65
2023/01/30 02:53:55;;;;;;;7.30;6.32;;;-4.00;94.60;;;;;;4994458;28;20129;-65
2023/01/30 02:56:20;;;;;;;6.65;6.10;;;-4.10;94.40;;;;;;4999669;28;20106;-64
2023/01/30 02:58:54;;;;;;;7.07;6.47;;;-4.10;94.40;;;;;;5003544;28;20549;-65
2023/01/30 03:01:28;;;;;;;9.95;9.30;;;-4.00;94.50;;;;;;5006258;28;20092;-65
2023/01/30 03:04:17;;;;;;;5.45;4.90;;;-4.00;94.40;;;;;;5003195;28;20076;-64
2023/01/30 03:06:57;;;;;;;13.82;12.70;;;-3.90;94.30;;;;;;5001131;28;20029;-65
2023/01/30 03:09:38;;;;;;;;;;;-3.80;94.20;;;;;;5017464;28;20049;-64
2023/01/30 03:12:12;;;;;;;3.53;3.33;;;-3.80;94.30;;;;;;5019901;28;19913;-65
2023/01/30 03:14:42;;;;;;;6.30;5.60;;;-3.80;94.30;;;;;;5024988;28;20042;-65
2023/01/30 03:17:09;;;;;;;30.42;28.10;;;-3.80;94.20;;;;;;5005809;28;20084;-65
2023/01/30 03:19:35;;;;;;;15.52;14.25;;;-3.80;94.30;;;;;;5021961;28;20104;-66
2023/01/30 03:22:01;;;;;;;6.88;6.22;;;-3.90;94.30;;;;;;5010769;28;20160;-65
2023/01/30 03:24:26;;;;;;;10.88;9.95;;;-3.90;94.40;;;;;;5010599;28;20095;-64
2023/01/30 03:27:01;;;;;;;9.57;7.82;;;-3.80;94.60;;;;;;5019737;28;20040;-65
2023/01/30 03:29:27;;;;;;;6.80;6.20;;;-3.70;94.90;;;;;;5026339;28;20030;-65
2023/01/30 03:31:52;;;;;;;10.18;9.48;;;-3.70;94.50;;;;;;5020142;28;20041;-65
2023/01/30 03:34:18;;;;;;;7.75;7.13;;;-3.70;94.50;;;;;;5025018;28;20507;-64
2023/01/30 03:36:45;;;;;;;38.42;34.75;;;-3.70;94.50;;;;;;5029027;28;20033;-65
2023/01/30 03:39:11;;;;;;;14.30;13.50;;;-3.60;94.30;;;;;;5022102;28;20575;-64
2023/01/30 03:41:37;;;;;;;6.85;6.43;;;-3.60;94.30;;;;;;5026973;28;20430;-65
2023/01/30 03:44:03;;;;;;;10.98;10.27;;;-3.60;94.20;;;;;;5015607;28;20499;-65
2023/01/30 03:46:28;;;;;;;9.68;9.05;;;-3.60;94.20;;;;;;5025249;28;20034;-65
2023/01/30 03:48:54;;;;;;;7.20;6.40;;;-3.60;94.30;;;;;;5025308;28;20471;-65
2023/01/30 03:51:20;;;;;;;8.85;8.05;;;-3.60;94.40;;;;;;5027539;28;20036;-65
2023/01/30 03:53:45;;;;;;;23.63;22.45;;;-3.60;94.30;;;;;;5025468;28;20035;-65
2023/01/30 03:56:11;;;;;;;11.00;9.73;;;-3.60;94.40;;;;;;5022681;28;20542;-65
2023/01/30 03:58:36;;;;;;;9.40;8.80;;;-3.50;94.30;;;;;;5023223;28;20034;-65
2023/01/30 04:01:02;;;;;;;10.80;10.00;;;-3.60;94.20;;;;;;5025513;28;20050;-65
2023/01/30 04:03:28;;;;;;;7.22;6.75;;;-3.70;94.20;;;;;;5026099;28;20064;-65
2023/01/30 04:05:53;;;;;;;9.18;8.30;;;-3.80;94.20;;;;;;5024691;28;20040;-65
2023/01/30 04:08:19;;;;;;;7.18;6.28;;;-3.80;94.40;;;;;;5025061;28;20535;-65
2023/01/30 04:10:45;;;;;;;7.20;6.65;;;-3.80;94.70;;;;;;5006448;28;20065;-65
2023/01/30 04:13:10;;;;;;;11.88;11.05;;;-3.80;94.50;;;;;;5005799;28;20039;-66
2023/01/30 04:15:36;;;;;;;6.75;6.22;;;-3.80;94.80;;;;;;5005784;28;20540;-66
2023/01/30 04:18:01;;;;;;;44.95;42.72;;;-3.80;94.70;;;;;;5005503;28;20061;-66
2023/01/30 04:20:27;;;;;;;11.05;9.88;;;-3.90;94.70;;;;;;5004426;28;20030;-65
2023/01/30 04:22:55;;;;;;;9.05;8.35;;;-4.00;94.70;;;;;;5002848;28;20042;-65
2023/01/30 04:25:21;;;;;;;14.38;13.38;;;-4.00;94.90;;;;;;5004798;28;20034;-65
2023/01/30 04:27:47;;;;;;;36.47;34.03;;;-4.00;95.00;;;;;;5005567;28;20061;-65
2023/01/30 04:30:13;;;;;;;287.27;258.17;;;-3.90;95.10;;;;;;5004593;28;20439;-65
2023/01/30 04:32:39;;;;;;;12.88;12.00;;;-3.80;95.30;;;;;;4991025;28;20370;-65
2023/01/30 04:35:05;;;;;;;36.28;33.28;;;-3.90;95.10;;;;;;5003851;28;20053;-65
2023/01/30 04:37:30;;;;;;;133.48;122.85;;;-3.70;95.30;;;;;;4999543;28;20031;-64
2023/01/30 04:39:56;;;;;;;12.18;11.38;;;-3.70;95.20;;;;;;5003307;28;20042;-64
2023/01/30 04:42:22;;;;;;;49.42;46.03;;;-3.80;95.00;;;;;;5004855;28;20542;-64
2023/01/30 04:44:47;;;;;;;57.60;52.50;;;-3.80;95.10;;;;;;5008377;28;20046;-65
2023/01/30 04:47:13;;;;;;;25.23;23.85;;;-3.80;95.00;;;;;;5005702;28;20069;-65
2023/01/30 04:49:38;;;;;;;51.17;47.65;;;-3.80;95.20;;;;;;4986713;28;20108;-65
2023/01/30 04:52:04;;;;;;;10.82;9.95;;;-3.70;95.30;;;;;;4998543;28;20035;-65
2023/01/30 04:54:30;;;;;;;7.50;7.05;;;-3.80;95.20;;;;;;5005893;28;20105;-65
2023/01/30 04:56:56;;;;;;;14.40;13.48;;;-3.70;95.30;;;;;;5005645;28;20642;-65
2023/01/30 04:59:22;;;;;;;13.05;12.10;;;-3.70;95.30;;;;;;5011254;28;20097;-66
2023/01/30 05:01:48;;;;;;;10.23;8.75;;;-3.70;95.30;;;;;;5011575;28;20180;-65
2023/01/30 05:04:13;;;;;;;21.23;20.13;;;-3.90;95.10;;;;;;5005344;28;20523;-65
2023/01/30 05:06:39;;;;;;;14.15;13.30;;;-3.80;95.30;;;;;;5001721;28;20423;-64
2023/01/30 05:09:05;;;;;;;12.38;11.63;;;-3.80;95.20;;;;;;5004258;28;20043;-65
2023/01/30 05:11:32;;;;;;;42.83;39.10;;;-3.70;95.30;;;;;;5005056;28;20038;-65
2023/01/30 05:13:58;;;;;;;13.10;11.90;;;-3.60;95.40;;;;;;5002915;28;20037;-65
2023/01/30 05:16:24;;;;;;;18.27;17.15;;;-3.60;95.20;;;;;;4996542;28;20385;-65
2023/01/30 05:18:50;;;;;;;222.57;201.52;;;-3.60;95.20;;;;;;4983889;28;20033;-64
2023/01/30 05:21:27;;;;;;;7.90;7.18;;;-3.50;95.10;;;;;;5007983;28;20034;-64
2023/01/30 05:23:54;;;;;;;6.10;5.60;;;-3.50;94.90;;;;;;4989464;28;20027;-65
2023/01/30 05:26:21;;;;;;;9.18;8.38;;;-3.60;94.90;;;;;;4985476;28;20061;-65
2023/01/30 05:28:54;;;;;;;7.32;6.65;;;-3.60;94.80;;;;;;5000135;28;20025;-65
2023/01/30 05:31:21;;;;;;;57.53;45.50;;;-3.50;94.90;;;;;;5006560;28;20460;-64
2023/01/30 05:33:48;;;;;;;8.70;7.85;;;-3.40;95.20;;;;;;5004760;28;20451;-66
2023/01/30 05:36:17;;;;;;;7.40;6.90;;;-3.40;94.80;;;;;;5000305;28;20034;-66
2023/01/30 05:38:43;;;;;;;28.60;27.23;;;-3.30;94.70;;;;;;4983638;28;20147;-65
2023/01/30 05:41:10;;;;;;;10.90;7.07;;;-3.30;94.60;;;;;;5007986;28;20038;-72
2023/01/30 05:43:36;;;;;;;8.52;7.82;;;-3.30;94.50;;;;;;5003166;28;20041;-75
2023/01/30 05:46:04;;;;;;;9.02;6.93;;;-3.30;94.40;;;;;;4989640;28;20030;-74
2023/01/30 05:48:29;;;;;;;18.88;17.92;;;-3.30;94.30;;;;;;5005633;28;20034;-73
2023/01/30 05:50:57;;;;;;;37.47;35.22;;;-3.40;94.40;;;;;;4998739;28;20048;-74
2023/01/30 05:53:26;;;;;;;9.25;8.48;;;-3.40;94.40;;;;;;5005451;28;20037;-73
2023/01/30 05:56:01;;;;;;;10.32;9.63;;;-3.40;94.60;;;;;;4983979;28;20149;-72
2023/01/30 05:58:27;;;;;;;17.83;16.83;;;-3.40;94.60;;;;;;5001886;28;20034;-76
2023/01/30 06:00:54;;;;;;;80.85;75.63;;;-3.50;94.60;;;;;;4986344;28;20385;-72
2023/01/30 06:03:19;;;;;;;59.60;55.22;;;-3.50;94.70;;;;;;5000278;28;20034;-71
2023/01/30 06:05:45;;;;;;;8.10;7.50;;;-3.50;94.50;;;;;;5003474;28;20521;-77
2023/01/30 06:08:11;;;;;;;74.10;65.35;;;-3.50;94.80;;;;;;5006937;28;20049;-75
2023/01/30 06:10:37;;;;;;;11.38;10.77;;;-3.50;94.90;;;;;;5004329;28;20084;-73
2023/01/30 06:13:02;;;;;;;5.68;5.07;;;-3.50;94.90;;;;;;5027207;28;20033;-75
2023/01/30 06:15:28;;;;;;;26.70;25.15;;;-3.40;94.60;;;;;;5023500;28;20491;-77
2023/01/30 06:17:54;;;;;;;29.65;27.25;;;-3.50;94.60;;;;;;5018164;28;20108;-74
2023/01/30 06:20:20;;;;;;;41.70;39.40;;;-3.50;94.70;;;;;;5020417;28;20113;-72
2023/01/30 06:22:48;;;;;;;6.25;5.82;;;-3.40;94.50;;;;;;5021058;28;20064;-74
2023/01/30 06:25:13;;;;;;;76.03;71.25;;;-3.40;94.40;;;;;;5018700;28;20030;-73
2023/01/30 06:27:39;;;;;;;22.73;21.55;;;-3.30;94.60;;;;;;5007773;28;20052;-75
2023/01/30 06:30:05;;;;;;;79.85;75.10;;;-3.20;94.40;;;;;;5007428;28;20033;-79
2023/01/30 06:32:31;;;;;;;237.48;219.32;;;-3.10;94.10;;;;;;5019939;28;20507;-76
2023/01/30 06:34:56;;;;;;;49.28;46.38;;;-3.00;93.80;;;;;;5024776;28;20036;-75
2023/01/30 06:37:22;;;;;;;36.78;34.47;;;-2.90;93.70;;;;;;4995819;28;20034;-76
2023/01/30 06:39:47;;;;;;;125.07;112.15;;;-2.90;93.70;;;;;;5005340;28;20030;-76
2023/01/30 06:42:13;;;;;;;15.77;14.95;;;-2.90;93.60;;;;;;5001514;28;20034;-75
2023/01/30 06:44:39;;;;;;;187.93;169.13;;;-2.90;93.50;;;;;;5027913;28;20067;-74
2023/01/30 06:47:04;;;;;;;11.45;10.73;;;-2.90;93.60;;;;;;5024435;28;20513;-80
2023/01/30 06:49:30;;;;;;;353.73;199.55;;;-2.90;93.40;;;;;;5021938;28;20087;-78
2023/01/30 06:51:55;;;;;;;153.85;137.38;;;-2.80;93.30;;;;;;5004853;28;20185;-73
2023/01/30 06:54:21;;;;;;;222.90;190.52;;;-2.80;93.10;;;;;;5001629;28;20499;-75
2023/01/30 06:56:46;;;;;;;15.25;14.55;;;-2.80;93.50;;;;;;5001363;28;20045;-73
2023/01/30 06:59:12;;;;;;;42.35;38.65;;;-2.80;93.00;;;;;;5010537;28;20432;-77
2023/01/30 07:01:38;;;;;;;43.47;40.28;;;-2.80;93.00;;;;;;5022954;28;20061;-80
2023/01/30 07:04:04;;;;;;;135.82;112.65;;;-2.70;93.00;;;;;;5022413;28;20025;-78
2023/01/30 07:06:30;;;;;;;6.57;6.07;;;-2.70;93.10;;;;;;5014297;28;20369;-76
2023/01/30 07:08:57;;;;;;;12.63;11.95;;;-2.60;93.20;;;;;;5027807;28;20392;-76
2023/01/30 07:11:23;;;;;;;38.17;35.75;;;-2.50;93.10;;;;;;5012682;28;20069;-79
2023/01/30 07:13:49;;;;;;;33.15;30.40;;;-2.50;92.80;;;;;;5022576;28;20033;-78
2023/01/30 07:16:14;;;;;;;6.93;6.50;;;-2.50;92.70;;;;;;4986620;28;20037;-77
2023/01/30 07:18:40;;;;;;;202.57;112.65;;;-2.50;92.90;;;;;;5004986;28;20034;-74
2023/01/30 07:21:06;;;;;;;157.68;87.20;;;-2.60;92.70;;;;;;5017858;28;20152;-76
2023/01/30 07:23:31;;;;;;;16.92;16.05;;;-2.70;92.70;;;;;;5025244;28;20372;-74
2023/01/30 07:25:57;;;;;;;4.07;3.78;;;-2.60;92.80;;;;;;5011111;28;20846;-77
2023/01/30 07:28:23;;;;;;;79.90;73.38;;;-2.60;92.90;;;;;;5011080;28;20100;-75
2023/01/30 07:30:51;;;;;;;59.92;56.53;;;-2.60;92.80;;;;;;5021562;28;20075;-75
2023/01/30 07:33:17;;;;;;;171.73;125.55;;;-2.70;92.80;;;;;;5009047;28;20423;-80
2023/01/30 07:35:43;;;;;;;63.40;58.97;;;-2.70;92.80;;;;;;5023855;28;20030;-77
2023/01/30 07:38:09;;;;;;;149.20;138.20;;;-2.80;93.00;;;;;;5020419;28;20427;-75
2023/01/30 07:40:34;;;;;;;130.30;93.95;;;-2.80;93.00;;;;;;5016716;28;20391;-78
2023/01/30 07:43:01;;;;;;;12.25;11.65;;;-2.80;92.90;;;;;;5033095;28;20456;-78
2023/01/30 07:45:40;;;;;;;57.88;54.22;;;-2.90;92.90;;;;;;5017851;28;20109;-76
2023/01/30 07:48:07;;;;;;;41.88;39.42;;;-2.90;93.00;;;;;;5027540;28;20491;-77
2023/01/30 07:50:32;;;;;;;10.05;9.48;;;-2.90;93.00;;;;;;5001336;28;20034;-76
2023/01/30 07:52:58;;;;;;;212.85;177.13;;;-2.90;93.20;;;;;;5018269;28;20553;-77
2023/01/30 07:55:24;;;;;;;23.55;22.45;;;-2.90;93.00;;;;;;5005661;28;20041;-74
2023/01/30 07:57:49;;;;;;;64.80;58.08;;;-2.80;93.00;;;;;;4999512;28;20052;-76
2023/01/30 08:00:15;;;;;;;13.73;12.90;;;-2.70;92.90;;;;;;5023467;28;20071;-77
2023/01/30 08:02:41;;;;;;;9.02;8.43;;;-2.80;92.80;;;;;;5020756;28;20104;-79
2023/01/30 08:05:07;;;;;;;113.93;101.38;;;-2.80;92.30;;;;;;5008310;28;20082;-74
2023/01/30 08:07:33;;;;;;;2.92;2.72;;;-2.80;92.50;;;;;;5014985;28;20067;-81
2023/01/30 08:09:58;;;;;;;4.55;4.28;;;-2.60;92.70;;;;;;5029729;28;20061;-79
2023/01/30 08:12:24;;;;;;;7.68;7.10;;;-2.60;92.40;;;;;;5014522;28;20124;-77
2023/01/30 08:14:50;;;;;;;110.40;100.07;;;-2.50;92.40;;;;;;4991947;28;20066;-79
2023/01/30 08:17:17;;;;;;;164.77;116.78;;;-2.40;92.10;;;;;;5032694;28;20021;-76
2023/01/30 08:19:43;;;;;;;21.55;20.30;;;-2.20;91.80;;;;;;5010298;28;20042;-79
2023/01/30 08:22:08;;;;;;;9.85;9.23;;;-2.10;91.70;;;;;;5031639;28;20403;-82
2023/01/30 08:24:35;;;;;;;46.40;43.28;;;-2.10;91.30;;;;;;5030061;28;20076;-81
2023/01/30 08:27:01;;;;;;;4.70;4.32;;;-2.00;91.00;;;;;;5014783;28;20037;-74
2023/01/30 08:29:27;;;;;;;75.35;68.30;;;-1.80;90.80;;;;;;5017053;28;20495;-76
2023/01/30 08:31:57;;;;;;;13.20;12.13;;;-1.70;90.40;;;;;;5015115;28;20037;-81
2023/01/30 08:34:23;;;;;;;118.22;93.97;;;-1.60;90.20;;;;;;5032310;28;20061;-79
2023/01/30 08:36:48;;;;;;;4.90;4.45;;;-1.50;90.20;;;;;;5026198;28;20057;-79
2023/01/30 08:39:14;;;;;;;162.65;94.30;;;-1.50;90.10;;;;;;5014369;28;20029;-81
2023/01/30 08:41:42;;;;;;;4.55;3.95;;;-1.50;90.00;;;;;;5032081;28;20056;-78
2023/01/30 08:44:09;;;;;;;94.75;65.80;;;-1.30;90.20;;;;;;5032263;28;20033;-76
2023/01/30 08:46:34;;;;;;;16.33;15.32;;;-1.30;88.70;;;;;;5023531;28;20029;-75
2023/01/30 08:49:00;;;;;;;4.53;4.15;;;-1.20;89.50;;;;;;5028714;28;20514;-74
2023/01/30 08:51:26;;;;;;;5.45;4.32;;;-1.20;88.70;;;;;;5032039;28;20040;-76
2023/01/30 08:53:51;;;;;;;6.30;5.93;;;-1.30;88.90;;;;;;5014159;28;20043;-75
2023/01/30 08:56:17;;;;;;;15.43;14.52;;;-1.30;88.20;;;;;;5013710;28;20469;-78
2023/01/30 08:58:44;;;;;;;11.63;10.93;;;-1.20;88.00;;;;;;5030820;28;20495;-74
2023/01/30 09:01:10;;;;;;;3.95;3.65;;;-1.20;88.20;;;;;;5014171;28;20079;-75
2023/01/30 09:03:36;;;;;;;130.27;59.05;;;-1.10;88.50;;;;;;5028130;28;20108;-74
2023/01/30 09:06:01;;;;;;;4.82;4.15;;;-1.00;88.40;;;;;;5014866;28;20040;-74
2023/01/30 09:08:27;;;;;;;7.30;6.85;;;-1.00;88.70;;;;;;5000017;28;20057;-77
2023/01/30 09:10:58;;;;;;;7.20;6.72;;;-1.00;88.60;;;;;;5023021;28;20033;-76
2023/01/30 09:13:24;;;;;;;;;;;-1.10;88.70;;;;;;5020630;28;20033;-75
2023/01/30 09:15:49;;;;;;;377.42;130.35;;;-1.00;88.40;;;;;;5012630;28;19928;-77
2023/01/30 09:18:15;;;;;;;5.68;5.22;;;-0.90;86.60;;;;;;5013438;28;20463;-78
2023/01/30 09:20:40;;;;;;;299.83;126.65;;;-0.80;86.30;;;;;;5019142;28;20097;-75
2023/01/30 09:23:06;;;;;;;3.83;3.53;;;-0.90;86.20;;;;;;5012794;28;20030;-76
2023/01/30 09:25:32;;;;;;;116.05;99.03;;;-0.70;86.30;;;;;;5011943;28;20127;-77
2023/01/30 09:27:58;;;;;;;3.85;3.25;;;-0.60;85.40;;;;;;5009456;28;20555;-76
2023/01/30 09:30:24;;;;;;;5.55;4.22;;;-0.50;85.10;;;;;;5012754;28;20062;-76
2023/01/30 09:32:50;;;;;;;3.63;3.33;;;-0.50;85.40;;;;;;5020512;28;20100;-77
2023/01/30 09:35:16;;;;;;;215.00;81.13;;;-0.50;85.80;;;;;;5023280;28;20061;-76
2023/01/30 09:37:49;;;;;;;8.35;7.75;;;-0.60;85.10;;;;;;5010471;28;20029;-81
2023/01/30 09:40:25;;;;;;;4.32;3.92;;;-0.40;85.50;;;;;;5020786;28;20610;-80
2023/01/30 09:42:53;;;;;;;10.85;10.07;;;-0.40;84.60;;;;;;5020059;28;20085;-76
2023/01/30 09:45:32;;;;;;;52.88;30.65;;;-0.20;84.90;;;;;;5025041;28;20934;-75
2023/01/30 09:48:42;;;;;;;5.45;4.90;;;-0.10;84.20;;;;;;5023257;28;20441;-75
2023/01/30 09:51:26;;;;;;;11.95;11.15;;;0.10;84.10;;;;;;4955349;28;20046;-73
2023/01/30 09:53:58;;;;;;;31.95;28.60;;;0.10;83.50;;;;;;4957423;28;20698;-75
2023/01/30 09:56:24;;;;;;;110.30;77.85;;;0.10;83.90;;;;;;5002136;28;20065;-76
2023/01/30 09:58:53;;;;;;;4.90;3.25;;;0.20;83.00;;;;;;5011148;28;20495;-74
2023/01/30 10:02:08;;;;;;;98.25;63.80;;;0.30;83.50;;;;;;5020880;28;20071;-75
2023/01/30 10:04:39;;;;;;;10.90;10.13;;;0.60;82.30;;;;;;4970745;28;20031;-76
2023/01/30 10:07:41;;;;;;;167.07;79.63;;;0.60;80.40;;;;;;5018781;28;20029;-75
2023/01/30 10:10:47;;;;;;;5.97;4.55;;;0.40;81.70;;;;;;5024344;28;20411;-78
2023/01/30 10:13:45;;;;;;;3.08;2.78;;;0.40;81.70;;;;;;5015355;28;20125;-75
2023/01/30 10:16:29;;;;;;;161.75;41.67;;;0.40;82.20;;;;;;5004412;28;20709;-75
2023/01/30 10:19:26;;;;;;;96.43;68.38;;;0.30;82.90;;;;;;5019499;28;20024;-75
2023/01/30 10:22:11;;;;;;;8.88;8.18;;;0.10;83.30;;;;;;5027587;28;20040;-76
2023/01/30 10:24:58;;;;;;;4.30;4.00;;;0.10;83.70;;;;;;5021294;28;20036;-80
2023/01/30 10:27:28;;;;;;;32.80;18.77;;;0.10;83.90;;;;;;5010790;28;20029;-76
2023/01/30 10:29:56;;;;;;;110.85;83.65;;;0.40;84.10;;;;;;5017589;28;20052;-75
2023/01/30 10:32:29;;;;;;;77.07;68.65;;;0.50;82.70;;;;;;5022888;28;20037;-75
2023/01/30 10:34:59;;;;;;;120.35;41.22;;;0.60;82.40;;;;;;5019848;28;20022;-75
2023/01/30 10:38:23;;;;;;;40.67;26.67;;;0.30;83.00;;;;;;5011298;28;20450;-82
2023/01/30 10:41:11;;;;;;;154.85;104.85;;;0.30;84.00;;;;;;4966359;28;20448;-76
2023/01/30 10:43:43;;;;;;;232.13;130.18;;;0.20;84.10;;;;;;5020501;28;20038;-78
2023/01/30 10:46:46;;;;;;;2.17;2.00;;;0.30;83.80;;;;;;5021330;28;20022;-75
2023/01/30 10:49:38;;;;;;;82.70;75.65;;;0.20;84.00;;;;;;5011522;28;20021;-77
2023/01/30 10:52:12;;;;;;;28.80;20.50;;;0.30;85.10;;;;;;5015317;28;20049;-74
2023/01/30 10:54:57;;;;;;;436.02;121.75;;;0.50;84.90;;;;;;5018684;28;20029;-76
2023/01/30 10:57:50;;;;;;;8.77;8.27;;;0.50;84.50;;;;;;5023898;28;20048;-78
2023/01/30 11:00:26;;;;;;;123.47;62.10;;;0.70;84.10;;;;;;5020838;28;20104;-76
2023/01/30 11:03:24;;;;;;;11.32;10.65;;;1.00;83.90;;;;;;5025868;28;20025;-76
2023/01/30 11:05:53;;;;;;;21.10;19.08;;;1.30;83.90;;;;;;5021656;28;20045;-78
2023/01/30 11:08:28;;;;;;;53.97;32.50;;;1.60;82.40;;;;;;5011014;28;20578;-77
2023/01/30 11:10:54;;;;;;;10.13;9.50;;;1.60;81.20;;;;;;5016654;28;20056;-77
2023/01/30 11:13:25;;;;;;;159.38;59.15;;;1.80;81.00;;;;;;5003188;28;20041;-76
2023/01/30 11:15:54;;;;;;;60.67;28.25;;;2.00;79.60;;;;;;5019396;28;20021;-76
2023/01/30 11:18:21;;;;;;;7.07;6.60;;;2.30;79.70;;;;;;5023368;28;20494;-75
2023/01/30 11:21:00;;;;;;;2.53;2.33;;;1.90;79.60;;;;;;5021294;28;20542;-75
2023/01/30 11:23:42;;;;;;;221.88;77.43;;;1.90;80.40;;;;;;5017896;28;20032;-76
2023/01/30 11:26:32;;;;;;;14.65;13.45;;;1.60;81.20;;;;;;5020354;28;20033;-76
2023/01/30 11:28:58;;;;;;;120.57;69.13;;;1.50;81.70;;;;;;5008133;28;20406;-75
2023/01/30 11:31:26;;;;;;;400.95;132.40;;;1.30;82.30;;;;;;5025436;28;20033;-75
2023/01/30 11:34:00;;;;;;;384.27;94.88;;;1.20;82.90;;;;;;5009381;28;20034;-74
2023/01/30 11:36:34;;;;;;;5.32;4.25;;;1.20;83.20;;;;;;5022352;28;20495;-78
2023/01/30 11:39:12;;;;;;;53.10;47.25;;;1.30;83.80;;;;;;5017378;28;20343;-75
2023/01/30 11:41:55;;;;;;;109.05;41.35;;;1.30;83.10;;;;;;5008649;28;20029;-77
2023/01/30 11:44:28;;;;;;;160.25;42.45;;;1.30;83.20;;;;;;4996406;28;20526;-75
2023/01/30 11:46:59;;;;;;;4.40;3.97;;;1.20;83.40;;;;;;5019463;28;20513;-72
2023/01/30 11:49:34;;;;;;;11.75;11.00;;;1.40;83.40;;;;;;5021846;28;20029;-75
2023/01/30 11:52:00;;;;;;;76.40;36.10;;;1.40;83.30;;;;;;5022513;28;20048;-72
2023/01/30 11:54:43;;;;;;;4.60;3.95;;;1.30;82.60;;;;;;4996899;28;20037;-75
2023/01/30 11:57:18;;;;;;;3.30;3.00;;;1.60;82.70;;;;;;5021021;28;20029;-79
2023/01/30 11:59:54;;;;;;;10.93;10.15;;;1.80;82.80;;;;;;5024929;28;20682;-77
2023/01/30 12:02:30;;;;;;;15.07;13.93;;;1.60;82.00;;;;;;5026266;28;20034;-74
2023/01/30 12:05:00;;;;;;;7.40;6.90;;;1.60;83.40;;;;;;5024625;28;20028;-75
2023/01/30 12:07:31;;;;;;;109.95;75.15;;;1.40;83.10;;;;;;5007370;28;20112;-74
2023/01/30 12:09:57;;;;;;;;;;;1.50;82.60;;;;;;5013218;28;20081;-80
2023/01/30 12:12:33;;;;;;;234.25;97.32;;;1.90;82.10;;;;;;5024526;28;19990;-74
2023/01/30 12:15:16;;;;;;;53.20;19.33;;;1.60;81.30;;;;;;5023960;28;20368;-73
2023/01/30 12:17:55;;;;;;;60.05;39.47;;;1.60;82.00;;;;;;5027073;28;20083;-76
2023/01/30 12:20:57;;;;;;;2.95;2.53;;;1.70;82.10;;;;;;5015653;28;20029;-74
2023/01/30 12:23:41;;;;;;;90.68;61.85;;;1.80;81.80;;;;;;5011968;28;20063;-74
2023/01/30 12:26:27;;;;;;;215.02;63.30;;;1.70;81.80;;;;;;5011486;28;20025;-74
2023/01/30 12:29:01;;;;;;;40.45;7.28;;;1.70;81.60;;;;;;5012863;28;20033;-74
2023/01/30 12:31:39;;;;;;;6.47;5.95;;;1.60;82.20;;;;;;5019000;28;20030;-75
2023/01/30 12:34:09;;;;;;;460.33;170.57;;;1.70;83.30;;;;;;5023569;28;20037;-73
2023/01/30 12:37:03;;;;;;;53.38;10.93;;;1.40;82.60;;;;;;5011605;28;20029;-75
2023/01/30 12:39:45;;;;;;;92.75;55.38;;;1.50;83.60;;;;;;5024102;28;20471;-76
2023/01/30 12:42:29;;;;;;;327.15;93.35;;;1.60;82.70;;;;;;5021676;28;20433;-77
2023/01/30 12:44:57;;;;;;;106.68;55.03;;;1.50;82.90;;;;;;5008697;28;20057;-77
2023/01/30 12:47:50;;;;;;;37.15;26.73;;;1.60;82.60;;;;;;5021946;28;20511;-79
2023/01/30 12:50:53;;;;;;;34.45;21.85;;;1.70;82.40;;;;;;5022722;28;20033;-76
2023/01/30 12:53:24;;;;;;;80.65;72.45;;;1.70;82.20;;;;;;5024181;28;20030;-76
2023/01/30 12:55:59;;;;;;;5.97;5.35;;;1.80;81.90;;;;;;5023038;28;20085;-75
2023/01/30 12:58:44;;;;;;;5.95;5.63;;;1.90;82.20;;;;;;5027151;28;20104;-77
2023/01/30 13:01:29;;;;;;;700.42;197.15;;;1.80;81.90;;;;;;5018996;28;20112;-76
2023/01/30 13:04:20;;;;;;;18.40;13.57;;;1.60;82.30;;;;;;5025334;28;20075;-76